Time;durP1;ratioP1;P1;durP2;ratioP2;P2;SDS_P1;SDS_P2;PMS_P1;PMS_P2;Temp;Humidity;BMP_temperature;BMP_pressure;BME280_temperature;BME280_humidity;BME280_pressure;Samples;Min_cycle;Max_cycle;Signal;HPM_P1;HPM_P2
2021/01/01 03:46:01;;;;;;;21.98;11.85;;;2.10;99.90;;;;;;5618435;23;85533;-83
2021/01/01 03:48:27;;;;;;;23.92;12.77;;;2.10;99.90;;;;;;4949121;28;84043;-84
2021/01/01 03:50:53;;;;;;;20.88;11.70;;;2.20;99.90;;;;;;4949523;28;84755;-83
2021/01/01 03:53:19;;;;;;;18.65;10.63;;;2.20;99.90;;;;;;4947622;28;83824;-82
2021/01/01 03:55:46;;;;;;;18.13;9.75;;;2.10;98.70;;;;;;4937236;28;83230;-83
2021/01/01 03:58:11;;;;;;;18.63;9.95;;;2.10;98.90;;;;;;4943515;28;85929;-82
2021/01/01 04:00:37;;;;;;;18.08;9.60;;;2.10;98.80;;;;;;4949757;28;83675;-84
2021/01/01 04:03:03;;;;;;;18.67;10.10;;;2.10;98.70;;;;;;4950465;28;84398;-84
2021/01/01 04:05:29;;;;;;;20.05;10.20;;;2.10;97.70;;;;;;4949609;28;83444;-82
2021/01/01 04:07:55;;;;;;;17.88;9.77;;;2.10;98.30;;;;;;4942727;28;83983;-82
2021/01/01 04:10:21;;;;;;;23.05;10.32;;;;;;;;;;4948819;28;85374;-84
2021/01/01 04:12:47;;;;;;;17.38;9.95;;;;;;;;;;4949662;28;83889;-84
2021/01/01 04:15:13;;;;;;;19.42;10.10;;;2.20;96.40;;;;;;4949303;28;83715;-83
2021/01/01 04:17:39;;;;;;;18.27;10.23;;;;;;;;;;4949486;28;83111;-84
2021/01/01 04:20:05;;;;;;;21.15;11.05;;;2.40;97.40;;;;;;4948968;28;83827;-84
2021/01/01 04:22:31;;;;;;;18.65;9.98;;;;;;;;;;4949934;28;83721;-84
2021/01/01 04:24:57;;;;;;;19.23;11.32;;;2.20;97.40;;;;;;4948498;28;83703;-84
2021/01/01 04:27:23;;;;;;;17.40;10.77;;;2.50;97.40;;;;;;4949773;28;84848;-84
2021/01/01 04:29:48;;;;;;;20.00;11.30;;;2.60;98.60;;;;;;4947540;28;83841;-84
2021/01/01 04:32:14;;;;;;;15.45;9.95;;;2.40;98.30;;;;;;4949583;28;83806;-84
2021/01/01 04:34:40;;;;;;;17.17;9.77;;;;;;;;;;4940610;28;83485;-84
2021/01/01 04:37:06;;;;;;;14.48;9.45;;;2.70;96.90;;;;;;4940741;28;85193;-84
2021/01/01 04:39:31;;;;;;;22.15;10.63;;;1.70;97.40;;;;;;4948303;28;85450;-84
2021/01/01 04:41:58;;;;;;;18.08;10.07;;;;;;;;;;4948375;28;83767;-84
2021/01/01 04:44:24;;;;;;;20.17;11.20;;;2.40;95.90;;;;;;4948224;28;83404;-85
2021/01/01 04:46:52;;;;;;;16.98;10.90;;;2.40;95.80;;;;;;4948365;28;84317;-84
2021/01/01 04:49:18;;;;;;;20.25;9.75;;;2.40;96.00;;;;;;4931257;28;85120;-85
2021/01/01 04:51:44;;;;;;;16.90;9.20;;;2.40;96.00;;;;;;4931100;28;83299;-84
2021/01/01 04:54:11;;;;;;;20.23;9.05;;;2.50;96.10;;;;;;4914581;28;83668;-84
2021/01/01 04:56:47;;;;;;;15.25;8.68;;;2.50;96.30;;;;;;4931064;28;85971;-84
2021/01/01 04:59:17;;;;;;;15.57;9.00;;;2.50;96.00;;;;;;4930640;28;85152;-84
2021/01/01 05:01:43;;;;;;;14.38;8.68;;;2.50;95.70;;;;;;4928420;28;83700;-84
2021/01/01 05:04:10;;;;;;;15.77;9.40;;;;;;;;;;4919891;28;83845;-84
2021/01/01 05:06:39;;;;;;;15.65;8.20;;;2.40;95.00;;;;;;4934861;28;83960;-84
2021/01/01 05:09:05;;;;;;;13.10;9.13;;;;;;;;;;4934327;28;83846;-84
2021/01/01 05:11:31;;;;;;;13.75;7.25;;;2.40;94.50;;;;;;4935578;28;83711;-81
2021/01/01 05:13:58;;;;;;;16.92;8.23;;;2.40;94.60;;;;;;4952266;28;83155;-81
2021/01/01 05:17:07;;;;;;;14.63;7.60;;;2.40;94.40;;;;;;4952610;28;83511;-84
2021/01/01 05:19:43;;;;;;;15.18;7.38;;;2.40;94.40;;;;;;4927906;28;86662;-85
2021/01/01 05:22:11;;;;;;;15.88;7.32;;;2.30;93.50;;;;;;4951736;28;83010;-82
2021/01/01 05:24:47;;;;;;;13.23;7.25;;;2.30;94.10;;;;;;4953382;28;83166;-81
2021/01/01 05:27:13;;;;;;;14.88;8.38;;;;;;;;;;4948270;28;84022;-84
2021/01/01 05:29:54;;;;;;;14.02;7.53;;;2.10;93.70;;;;;;4932850;28;83707;-82
2021/01/01 05:32:30;;;;;;;12.77;7.25;;;2.10;94.00;;;;;;4932523;28;83750;-84
2021/01/01 05:34:59;;;;;;;13.57;7.18;;;2.00;94.20;;;;;;4932817;28;83846;-84
2021/01/01 05:37:28;;;;;;;16.88;8.98;;;2.50;95.60;;;;;;4937098;28;83813;-84
2021/01/01 05:40:10;;;;;;;12.75;6.90;;;1.80;94.40;;;;;;4932287;28;84048;-83
2021/01/01 05:42:37;;;;;;;12.55;7.20;;;1.70;94.40;;;;;;4931917;28;83443;-82
2021/01/01 05:45:18;;;;;;;12.93;6.90;;;1.70;94.70;;;;;;4931359;28;83184;-83
2021/01/01 05:48:05;;;;;;;12.88;6.75;;;1.60;95.10;;;;;;4926444;28;87416;-81
2021/01/01 05:50:32;;;;;;;14.38;6.88;;;1.40;94.10;;;;;;4927759;28;84272;-83
2021/01/01 05:53:19;;;;;;;13.15;8.85;;;1.30;95.70;;;;;;4923580;28;83984;-83
2021/01/01 05:55:46;;;;;;;11.60;6.55;;;1.20;94.70;;;;;;4932780;28;83687;-83
2021/01/01 05:58:23;;;;;;;11.50;7.68;;;1.20;94.90;;;;;;4932575;28;84637;-83
2021/01/01 06:00:57;;;;;;;12.43;6.55;;;1.20;95.10;;;;;;4932080;28;84212;-82
2021/01/01 06:03:25;;;;;;;16.17;8.52;;;1.30;95.10;;;;;;4930571;28;83701;-84
2021/01/01 06:05:55;;;;;;;13.23;7.18;;;1.30;95.00;;;;;;4933381;28;83808;-82
2021/01/01 06:08:26;;;;;;;12.00;6.93;;;1.30;95.30;;;;;;4935078;28;84040;-83
2021/01/01 06:10:53;;;;;;;;;;;1.30;95.40;;;;;;4931496;28;84879;-82
2021/01/01 06:13:21;;;;;;;13.75;7.53;;;1.40;95.00;;;;;;4931670;28;84471;-81
2021/01/01 06:15:58;;;;;;;13.70;8.55;;;1.40;94.60;;;;;;4930730;28;83508;-82
2021/01/01 06:18:29;;;;;;;13.38;6.65;;;1.40;94.80;;;;;;4916928;28;84175;-83
2021/01/01 06:21:06;;;;;;;15.60;7.45;;;1.40;95.00;;;;;;4930842;28;86338;-82
2021/01/01 06:23:39;;;;;;;14.77;8.52;;;1.40;95.10;;;;;;4930846;28;84772;-83
2021/01/01 06:26:07;;;;;;;14.55;8.00;;;1.30;95.20;;;;;;4932484;28;83641;-83
2021/01/01 06:28:36;;;;;;;13.60;7.60;;;1.40;95.20;;;;;;4933201;28;83784;-83
2021/01/01 06:31:02;;;;;;;14.23;8.93;;;1.40;95.00;;;;;;4932732;28;84041;-83
2021/01/01 06:33:28;;;;;;;14.05;8.13;;;1.50;95.60;;;;;;4933385;28;83620;-83
2021/01/01 06:35:54;;;;;;;15.63;7.60;;;1.40;95.30;;;;;;4933563;28;83699;-83
2021/01/01 06:38:38;;;;;;;14.85;7.63;;;1.40;95.50;;;;;;4932584;28;84039;-82
2021/01/01 06:41:10;;;;;;;14.73;7.57;;;1.40;95.80;;;;;;4914464;28;84346;-86
2021/01/01 06:43:53;;;;;;;13.95;8.55;;;1.10;96.30;;;;;;4928843;28;83559;-85
2021/01/01 06:46:32;;;;;;;16.08;9.00;;;1.70;97.60;;;;;;4924200;28;83600;-83
2021/01/01 06:48:59;;;;;;;13.05;7.40;;;1.40;97.30;;;;;;4933366;28;83954;-85
2021/01/01 06:51:28;;;;;;;17.83;9.02;;;1.50;96.90;;;;;;4934174;28;84888;-85
2021/01/01 06:54:08;;;;;;;16.90;9.57;;;1.50;96.30;;;;;;4933997;28;83739;-85
2021/01/01 06:56:34;;;;;;;13.52;7.85;;;1.50;96.50;;;;;;4933584;28;84035;-84
2021/01/01 06:59:14;;;;;;;15.52;8.52;;;1.60;96.60;;;;;;4931221;28;86260;-84
2021/01/01 07:01:46;;;;;;;14.30;8.57;;;1.70;96.60;;;;;;4933583;28;83736;-85
2021/01/01 07:04:13;;;;;;;15.45;8.65;;;1.80;96.70;;;;;;4932123;28;83981;-84
2021/01/01 07:06:40;;;;;;;20.33;10.38;;;1.80;96.50;;;;;;4932644;28;83584;-84
2021/01/01 07:09:08;;;;;;;18.00;9.85;;;1.80;96.70;;;;;;4924435;28;84917;-83
2021/01/01 07:11:35;;;;;;;30.33;13.77;;;1.90;96.60;;;;;;4921690;28;84201;-85
2021/01/01 07:14:12;;;;;;;31.05;14.77;;;1.90;96.40;;;;;;4926672;28;83862;-84
2021/01/01 07:16:44;;;;;;;26.27;11.60;;;1.90;96.40;;;;;;4924733;28;83843;-83
2021/01/01 07:19:10;;;;;;;18.35;9.90;;;;;;;;;;4931026;28;84676;-85
2021/01/01 07:21:37;;;;;;;17.08;8.38;;;2.00;93.90;;;;;;4920228;28;84373;-86
2021/01/01 07:24:03;;;;;;;17.77;8.68;;;2.20;94.20;;;;;;4925783;28;83481;-85
2021/01/01 07:26:32;;;;;;;15.52;9.32;;;;;;;;;;4928292;28;83868;-84
2021/01/01 07:29:00;;;;;;;16.83;9.43;;;2.20;93.60;;;;;;4922665;28;86313;-85
2021/01/01 07:31:26;;;;;;;12.50;7.60;;;2.90;93.60;;;;;;4930249;28;83733;-85
2021/01/01 07:33:52;;;;;;;14.93;7.82;;;;;;;;;;4931926;28;83649;-86
2021/01/01 07:36:18;;;;;;;13.07;6.50;;;2.40;92.50;;;;;;4931854;28;83179;-85
2021/01/01 07:38:48;;;;;;;11.52;7.45;;;2.80;91.90;;;;;;4931897;28;83712;-86
2021/01/01 07:41:17;;;;;;;16.77;8.03;;;3.10;91.70;;;;;;4928432;28;87497;-85
2021/01/01 07:44:19;;;;;;;11.13;7.43;;;2.70;91.80;;;;;;4931405;28;83820;-84
2021/01/01 07:46:45;;;;;;;11.23;6.63;;;2.70;91.40;;;;;;4948885;28;82983;-84
2021/01/01 07:49:11;;;;;;;12.88;7.90;;;;;;;;;;4950000;28;84168;-82
2021/01/01 07:51:39;;;;;;;13.02;7.18;;;2.70;91.90;;;;;;4950648;28;83149;-85
2021/01/01 07:54:05;;;;;;;13.90;6.60;;;2.90;92.10;;;;;;4950403;28;83501;-83
2021/01/01 07:56:31;;;;;;;12.25;7.50;;;;;;;;;;4947163;28;83468;-85
2021/01/01 07:58:56;;;;;;;9.98;6.60;;;2.70;90.00;;;;;;4940660;28;84406;-85
2021/01/01 08:01:23;;;;;;;11.40;7.82;;;2.90;90.20;;;;;;4927175;28;83894;-86
2021/01/01 08:03:49;;;;;;;11.40;7.65;;;2.90;90.10;;;;;;4932166;28;83761;-84
2021/01/01 08:06:17;;;;;;;11.38;7.22;;;2.80;89.10;;;;;;4927352;28;83974;-84
2021/01/01 08:08:43;;;;;;;11.75;7.43;;;;;;;;;;4923532;28;85678;-83
2021/01/01 08:11:09;;;;;;;14.57;8.35;;;;;;;;;;4925195;28;83946;-85
2021/01/01 08:13:35;;;;;;;10.82;8.20;;;3.00;89.20;;;;;;4928365;28;83598;-85
2021/01/01 08:16:19;;;;;;;10.35;7.05;;;3.50;89.20;;;;;;4926153;28;83810;-84
2021/01/01 08:18:46;;;;;;;13.07;7.85;;;3.40;89.70;;;;;;4930258;28;83665;-85
2021/01/01 08:21:13;;;;;;;12.18;7.55;;;;;;;;;;4931336;28;83902;-85
2021/01/01 08:23:57;;;;;;;14.25;7.88;;;3.60;87.70;;;;;;4923936;28;83706;-85
2021/01/01 08:26:23;;;;;;;12.13;7.43;;;;;;;;;;4932090;28;83594;-85
2021/01/01 08:28:51;;;;;;;14.35;8.70;;;3.70;88.80;;;;;;4931386;28;85119;-84
2021/01/01 08:31:20;;;;;;;11.57;7.88;;;3.80;88.30;;;;;;4925604;28;86613;-85
2021/01/01 08:33:50;;;;;;;11.77;7.80;;;3.70;88.40;;;;;;4923611;28;83721;-84
2021/01/01 08:36:16;;;;;;;11.48;8.00;;;3.80;87.20;;;;;;4925296;28;83719;-85
2021/01/01 08:38:44;;;;;;;11.80;8.10;;;3.80;85.50;;;;;;4929303;28;85300;-86
2021/01/01 08:41:17;;;;;;;10.75;7.22;;;4.10;85.50;;;;;;4943799;28;85622;-85
2021/01/01 08:43:44;;;;;;;11.98;7.00;;;4.10;86.00;;;;;;4932688;28;83982;-83
2021/01/01 08:46:17;;;;;;;9.02;6.07;;;4.30;85.90;;;;;;4934539;28;83794;-84
2021/01/01 08:48:44;;;;;;;10.00;6.60;;;4.50;85.70;;;;;;4934491;28;84750;-85
2021/01/01 08:51:10;;;;;;;9.88;7.53;;;4.90;83.20;;;;;;4934190;28;83953;-85
2021/01/01 08:53:40;;;;;;;11.10;7.20;;;4.80;81.80;;;;;;4932251;28;83676;-82
2021/01/01 08:56:07;;;;;;;8.73;5.45;;;4.90;82.40;;;;;;4931617;28;83806;-84
2021/01/01 08:58:33;;;;;;;8.90;5.88;;;;;;;;;;4922655;28;85153;-83
2021/01/01 09:03:34;;;;;;;10.23;6.13;;;5.10;81.20;;;;;;5254033;23;111298;-84
2021/01/01 09:05:59;;;;;;;7.45;5.93;;;5.00;79.80;;;;;;4943077;28;84639;-82
2021/01/01 09:11:01;;;;;;;9.45;6.53;;;5.80;80.40;;;;;;4922765;23;84306;-82
2021/01/01 09:13:30;;;;;;;9.65;6.03;;;5.80;80.00;;;;;;4922345;28;84202;-85
2021/01/01 09:16:11;;;;;;;9.00;5.35;;;5.80;80.50;;;;;;4924308;28;83718;-82
2021/01/01 09:18:37;;;;;;;7.78;4.78;;;5.90;79.30;;;;;;4933547;28;83965;-84
2021/01/01 09:21:15;;;;;;;9.55;5.70;;;5.90;79.00;;;;;;4925305;28;84014;-82
2021/01/01 09:23:41;;;;;;;10.82;7.40;;;6.10;77.90;;;;;;4924686;28;83968;-85
2021/01/01 09:26:19;;;;;;;10.95;6.40;;;6.10;78.50;;;;;;4919711;28;83850;-85
2021/01/01 09:28:46;;;;;;;14.65;9.77;;;6.50;77.70;;;;;;4931712;28;85093;-87
2021/01/01 09:31:13;;;;;;;12.52;8.68;;;;;;;;;;4923336;28;84117;-86
2021/01/01 09:33:39;;;;;;;13.10;7.03;;;6.50;75.00;;;;;;4932909;28;84015;-88
2021/01/01 09:36:05;;;;;;;9.38;6.20;;;6.60;76.20;;;;;;4932467;28;83561;-86
2021/01/01 09:38:31;;;;;;;12.32;8.00;;;6.80;75.30;;;;;;4935501;28;84231;-87
2021/01/01 09:40:57;;;;;;;11.25;6.40;;;6.70;75.50;;;;;;4930534;28;85155;-87
2021/01/01 09:43:23;;;;;;;12.85;7.28;;;;;;;;;;4932582;28;83465;-85
2021/01/01 09:45:49;;;;;;;8.77;6.47;;;;;;;;;;4934231;28;83605;-87
2021/01/01 09:48:15;;;;;;;8.95;7.00;;;;;;;;;;4929275;28;83605;-85
2021/01/01 09:50:40;;;;;;;9.55;6.05;;;6.30;74.40;;;;;;4932879;28;84714;-84
2021/01/01 09:53:06;;;;;;;8.23;6.53;;;;;;;;;;4930019;28;83673;-85
2021/01/01 09:55:32;;;;;;;8.68;5.15;;;6.20;74.10;;;;;;4930819;28;83589;-83
2021/01/01 09:57:58;;;;;;;9.23;7.15;;;;;;;;;;4931343;28;84150;-83
2021/01/01 10:00:24;;;;;;;7.60;5.80;;;6.30;75.40;;;;;;4932847;28;83871;-83
2021/01/01 10:02:50;;;;;;;9.52;5.75;;;6.20;75.80;;;;;;4931990;28;84096;-84
2021/01/01 10:05:15;;;;;;;8.77;5.68;;;6.40;73.20;;;;;;4932271;28;83712;-83
2021/01/01 10:07:41;;;;;;;8.80;5.65;;;6.20;71.70;;;;;;4933080;28;84335;-83
2021/01/01 10:10:08;;;;;;;6.97;5.38;;;6.10;72.10;;;;;;4919074;28;87592;-80
2021/01/01 10:12:34;;;;;;;7.70;5.57;;;6.20;72.90;;;;;;4910887;28;83908;-84
2021/01/01 10:15:00;;;;;;;8.98;6.70;;;6.50;72.10;;;;;;4912752;28;84008;-83
2021/01/01 10:17:29;;;;;;;10.25;5.95;;;6.50;72.70;;;;;;4913582;28;84149;-83
2021/01/01 10:19:56;;;;;;;10.07;7.00;;;6.60;72.80;;;;;;4912018;28;85532;-83
2021/01/01 10:22:22;;;;;;;10.05;5.88;;;6.60;73.30;;;;;;4913083;28;83761;-82
2021/01/01 10:24:47;;;;;;;10.27;7.57;;;7.00;70.60;;;;;;4911872;28;83692;-84
2021/01/01 10:27:14;;;;;;;12.43;8.57;;;7.20;71.00;;;;;;4906088;28;84508;-84
2021/01/01 10:29:40;;;;;;;13.50;8.48;;;7.50;69.30;;;;;;4906971;28;84051;-84
2021/01/01 10:32:08;;;;;;;14.15;7.40;;;7.30;69.70;;;;;;4913460;28;83599;-84
2021/01/01 10:34:35;;;;;;;14.70;9.07;;;7.70;68.70;;;;;;4916082;28;84461;-84
2021/01/01 10:37:01;;;;;;;14.10;9.23;;;;;;;;;;4914387;28;85626;-84
2021/01/01 10:39:26;;;;;;;10.45;8.25;;;8.40;66.40;;;;;;4911319;28;84118;-85
2021/01/01 10:41:53;;;;;;;14.15;9.50;;;8.50;65.60;;;;;;4910834;28;83868;-82
2021/01/01 10:44:19;;;;;;;13.43;9.40;;;9.00;65.10;;;;;;4913076;28;83942;-81
2021/01/01 10:46:55;;;;;;;12.73;7.85;;;8.80;65.40;;;;;;4917052;28;83862;-84
2021/01/01 10:49:24;;;;;;;13.65;7.68;;;9.00;65.00;;;;;;4912201;28;83810;-83
2021/01/01 10:51:50;;;;;;;14.95;9.95;;;9.30;63.80;;;;;;4911787;28;83574;-83
2021/01/01 10:54:16;;;;;;;13.68;8.75;;;9.40;63.30;;;;;;4912658;28;83783;-82
2021/01/01 10:56:45;;;;;;;14.00;9.02;;;9.50;62.40;;;;;;4911057;28;84299;-83
2021/01/01 10:59:10;;;;;;;16.33;9.85;;;9.00;62.40;;;;;;4900774;28;83694;-84
2021/01/01 11:01:36;;;;;;;16.52;10.00;;;8.80;64.40;;;;;;4909741;28;83801;-83
2021/01/01 11:04:02;;;;;;;15.90;10.07;;;;;;;;;;4913845;28;83821;-80
2021/01/01 11:06:28;;;;;;;17.85;9.95;;;8.70;64.60;;;;;;4926657;28;84094;-80
2021/01/01 11:08:53;;;;;;;16.40;9.65;;;8.60;66.10;;;;;;4925062;28;83196;-81
2021/01/01 11:11:21;;;;;;;16.27;10.18;;;8.40;65.50;;;;;;4926394;28;83733;-81
2021/01/01 11:13:52;;;;;;;16.33;10.68;;;8.30;66.70;;;;;;4920428;28;83190;-85
2021/01/01 12:25:22;;;;;;;13.48;8.75;;;8.50;69.80;;;;;;4921683;28;83455;-82
2021/01/01 12:27:49;;;;;;;14.75;9.32;;;8.50;70.40;;;;;;4928171;28;83822;-82
2021/01/01 12:30:16;;;;;;;13.43;9.02;;;8.50;70.80;;;;;;4917347;28;83967;-85
2021/01/01 12:32:43;;;;;;;15.07;9.15;;;8.40;70.90;;;;;;4914635;28;84682;-84
2021/01/01 12:35:10;;;;;;;13.30;9.27;;;8.40;71.40;;;;;;4913783;28;84341;-85
2021/01/01 12:37:37;;;;;;;16.98;9.35;;;8.60;71.70;;;;;;4913351;28;83797;-85
2021/01/01 12:40:06;;;;;;;17.15;9.75;;;8.40;72.30;;;;;;4913817;28;83382;-85
2021/01/01 12:42:31;;;;;;;14.68;9.73;;;8.20;72.50;;;;;;4912714;28;85085;-85
2021/01/01 12:44:57;;;;;;;17.38;9.23;;;8.10;73.20;;;;;;4909257;28;84210;-85
2021/01/01 12:47:24;;;;;;;15.15;8.90;;;8.10;73.90;;;;;;4909830;28;83807;-84
2021/01/01 12:49:50;;;;;;;13.98;9.15;;;7.90;74.40;;;;;;4909814;28;83598;-84
2021/01/01 12:52:16;;;;;;;13.70;7.95;;;7.90;74.90;;;;;;4910676;28;84425;-83
2021/01/01 12:54:41;;;;;;;12.48;8.38;;;7.80;75.90;;;;;;4911445;28;84968;-85
2021/01/01 12:57:07;;;;;;;12.85;8.23;;;;;;;;;;4912535;28;83671;-84
2021/01/01 12:59:33;;;;;;;11.93;7.97;;;7.60;76.90;;;;;;4913557;28;83606;-85
2021/01/01 13:01:59;;;;;;;14.32;8.88;;;7.50;76.90;;;;;;4910877;28;85959;-83
2021/01/01 13:04:24;;;;;;;12.52;8.50;;;7.60;77.50;;;;;;4911091;28;84228;-85
2021/01/01 13:06:51;;;;;;;16.08;9.38;;;7.40;77.70;;;;;;4913645;28;83733;-84
2021/01/01 13:09:17;;;;;;;12.10;7.95;;;7.30;78.30;;;;;;4911888;28;84488;-84
2021/01/01 13:11:44;;;;;;;12.85;8.20;;;7.30;78.40;;;;;;4913771;28;83810;-84
2021/01/01 13:14:10;;;;;;;13.00;7.65;;;7.30;78.90;;;;;;4912019;28;83723;-84
2021/01/01 13:16:36;;;;;;;14.05;8.00;;;7.40;79.20;;;;;;4913228;28;83804;-82
2021/01/01 13:19:02;;;;;;;12.85;7.43;;;7.30;79.30;;;;;;4911941;28;83505;-84
2021/01/01 13:21:33;;;;;;;13.80;8.20;;;7.20;79.50;;;;;;4906861;28;84114;-85
2021/01/01 13:24:00;;;;;;;14.23;7.90;;;7.20;79.70;;;;;;4904566;28;84301;-83
2021/01/01 13:26:27;;;;;;;11.30;7.97;;;7.30;80.30;;;;;;4912504;28;83949;-82
2021/01/01 13:28:55;;;;;;;16.00;9.82;;;7.20;81.70;;;;;;4905132;28;84059;-82
2021/01/01 13:31:22;;;;;;;13.70;8.65;;;7.10;81.50;;;;;;4915133;28;83738;-85
2021/01/01 13:33:50;;;;;;;14.20;8.20;;;7.10;81.60;;;;;;4914402;28;87530;-83
2021/01/01 13:36:17;;;;;;;13.82;8.30;;;7.10;81.80;;;;;;4913030;28;83916;-84
2021/01/01 13:38:44;;;;;;;13.45;8.23;;;7.00;82.30;;;;;;4908943;28;83776;-85
2021/01/01 13:41:10;;;;;;;13.98;8.27;;;7.00;82.40;;;;;;4911452;28;83818;-83
2021/01/01 13:43:37;;;;;;;16.70;9.10;;;6.90;82.30;;;;;;4914963;28;84590;-83
2021/01/01 13:46:03;;;;;;;15.15;9.07;;;7.00;82.80;;;;;;4913021;28;83223;-84
2021/01/01 13:48:29;;;;;;;21.08;10.52;;;6.80;83.00;;;;;;4904047;28;83818;-82
2021/01/01 13:50:54;;;;;;;23.08;12.13;;;7.20;83.30;;;;;;4910495;28;85639;-83
2021/01/01 13:53:20;;;;;;;23.27;11.50;;;6.90;83.70;;;;;;4910401;28;83929;-80
2021/01/01 13:55:46;;;;;;;16.77;9.57;;;;;;;;;;4917657;28;83935;-81
2021/01/01 13:58:12;;;;;;;14.77;9.27;;;;;;;;;;4912400;28;83761;-82
2021/01/01 14:00:38;;;;;;;17.98;10.48;;;;;;;;;;4912418;28;84099;-80
2021/01/01 14:03:04;;;;;;;15.85;9.38;;;7.00;84.30;;;;;;4905584;28;83787;-84
2021/01/01 14:05:30;;;;;;;14.27;8.90;;;6.80;84.10;;;;;;4907497;28;83675;-85
2021/01/01 14:07:56;;;;;;;14.60;9.35;;;6.90;84.10;;;;;;4910223;28;83666;-85
2021/01/01 14:10:21;;;;;;;15.00;8.90;;;7.00;84.50;;;;;;4914975;28;85641;-83
2021/01/01 14:12:47;;;;;;;12.65;8.70;;;7.10;84.10;;;;;;4912709;28;83898;-84
2021/01/01 14:15:13;;;;;;;13.48;8.50;;;;;;;;;;4911204;28;83652;-82
2021/01/01 14:17:39;;;;;;;16.02;9.43;;;7.00;83.70;;;;;;4912528;28;83683;-86
2021/01/01 14:20:06;;;;;;;14.60;8.63;;;7.00;83.50;;;;;;4911341;28;84711;-86
2021/01/01 14:22:31;;;;;;;14.02;8.77;;;7.20;83.50;;;;;;4912010;28;84025;-85
2021/01/01 14:24:57;;;;;;;12.50;8.70;;;7.00;83.50;;;;;;4912764;28;83813;-84
2021/01/01 14:27:22;;;;;;;14.05;8.55;;;6.90;83.40;;;;;;4912521;28;83578;-87
2021/01/01 14:29:48;;;;;;;15.98;8.52;;;6.90;83.30;;;;;;4902510;28;84633;-86
2021/01/01 14:32:14;;;;;;;16.45;8.32;;;6.90;83.80;;;;;;4917358;28;84014;-87
2021/01/01 14:34:39;;;;;;;13.32;8.73;;;6.80;84.00;;;;;;4910371;28;84009;-88
2021/01/01 14:37:07;;;;;;;14.65;8.60;;;6.80;84.20;;;;;;4906695;28;83599;-85
2021/01/01 14:39:33;;;;;;;14.13;8.38;;;;;;;;;;4916354;28;84656;-87
2021/01/01 14:41:59;;;;;;;14.30;8.40;;;6.60;84.60;;;;;;4910922;28;83754;-86
2021/01/01 14:44:25;;;;;;;14.55;8.77;;;6.60;84.90;;;;;;4912369;28;83659;-85
2021/01/01 14:46:51;;;;;;;13.15;8.05;;;;;;;;;;4914653;28;83725;-86
2021/01/01 14:49:18;;;;;;;13.50;9.02;;;;;;;;;;4915905;28;83365;-86
2021/01/01 14:51:44;;;;;;;15.07;9.45;;;6.50;85.70;;;;;;4910165;28;83897;-85
2021/01/01 14:54:10;;;;;;;12.82;9.05;;;;;;;;;;4913613;28;83447;-87
2021/01/01 14:56:37;;;;;;;16.55;9.20;;;6.70;85.60;;;;;;4910504;28;85490;-86
2021/01/01 14:59:04;;;;;;;16.73;9.38;;;6.50;85.70;;;;;;4907259;28;86283;-85
2021/01/01 15:01:34;;;;;;;15.75;9.25;;;6.50;86.10;;;;;;4914718;28;85022;-82
2021/01/01 15:03:59;;;;;;;19.55;10.60;;;6.50;86.30;;;;;;4912108;28;83766;-86
2021/01/01 15:06:25;;;;;;;27.00;13.00;;;6.40;87.00;;;;;;4914542;28;83886;-87
2021/01/01 15:08:51;;;;;;;26.85;12.82;;;;;;;;;;4914001;28;84946;-85
2021/01/01 15:11:18;;;;;;;26.88;12.93;;;6.50;87.30;;;;;;4912498;28;83975;-83
2021/01/01 15:13:43;;;;;;;22.15;11.05;;;6.40;87.40;;;;;;4908358;28;83839;-83
2021/01/01 15:16:09;;;;;;;16.17;10.20;;;6.40;88.00;;;;;;4909569;28;84228;-85
2021/01/01 15:18:35;;;;;;;23.38;12.52;;;6.40;87.80;;;;;;4917266;28;83890;-86
2021/01/01 15:21:01;;;;;;;31.63;13.50;;;6.30;88.40;;;;;;4918334;28;84973;-84
2021/01/01 15:23:26;;;;;;;38.47;17.00;;;6.40;88.30;;;;;;4915787;28;83753;-84
2021/01/01 15:25:55;;;;;;;43.92;19.17;;;6.40;88.30;;;;;;4917363;28;83576;-85
2021/01/01 15:28:22;;;;;;;37.67;16.85;;;6.30;88.30;;;;;;4915505;28;83614;-86
2021/01/01 15:30:48;;;;;;;29.15;13.95;;;6.30;88.60;;;;;;4912969;28;84077;-85
2021/01/01 15:33:14;;;;;;;27.55;14.15;;;6.30;88.70;;;;;;4915267;28;84086;-84
2021/01/01 15:35:40;;;;;;;31.90;14.35;;;6.10;88.90;;;;;;4913718;28;83835;-85
2021/01/01 15:38:06;;;;;;;25.95;13.52;;;6.30;89.50;;;;;;4916076;28;84584;-84
2021/01/01 15:40:32;;;;;;;37.03;16.67;;;6.20;89.40;;;;;;4916142;28;83999;-85
2021/01/01 15:42:59;;;;;;;27.73;12.82;;;6.20;89.60;;;;;;4916064;28;83707;-85
2021/01/01 15:45:25;;;;;;;20.48;11.88;;;;;;;;;;4907173;28;84040;-84
2021/01/01 15:47:51;;;;;;;20.10;12.35;;;;;;;;;;4914156;28;83718;-85
2021/01/01 15:50:18;;;;;;;22.45;12.82;;;5.90;86.50;;;;;;4902441;28;85461;-84
2021/01/01 15:52:44;;;;;;;25.02;13.55;;;;;;;;;;4909342;28;83039;-85
2021/01/01 15:55:10;;;;;;;24.45;13.45;;;5.90;86.10;;;;;;4905882;28;83813;-85
2021/01/01 15:57:35;;;;;;;23.90;14.20;;;5.80;85.80;;;;;;4912641;28;83943;-84
2021/01/01 16:00:06;;;;;;;20.77;11.70;;;5.70;85.60;;;;;;4913812;28;84310;-84
2021/01/01 16:02:32;;;;;;;18.80;10.70;;;5.70;85.90;;;;;;4909356;28;84421;-84
2021/01/01 16:04:58;;;;;;;21.27;12.13;;;5.60;86.40;;;;;;4905920;28;84123;-84
2021/01/01 16:07:24;;;;;;;16.92;11.52;;;5.60;86.30;;;;;;4908180;28;87227;-83
2021/01/01 16:09:50;;;;;;;20.15;12.68;;;5.60;86.80;;;;;;4903462;28;83915;-84
2021/01/01 16:12:16;;;;;;;18.95;11.82;;;;;;;;;;4905444;28;83844;-83
2021/01/01 16:14:43;;;;;;;21.73;13.00;;;5.40;86.10;;;;;;4910804;28;83628;-84
2021/01/01 16:17:09;;;;;;;20.73;12.80;;;5.40;86.30;;;;;;4904114;28;84548;-82
2021/01/01 16:19:35;;;;;;;21.02;13.48;;;5.40;86.60;;;;;;4900988;28;85268;-84
2021/01/01 16:22:01;;;;;;;17.63;12.07;;;5.40;86.60;;;;;;4905208;28;85065;-83
2021/01/01 16:24:27;;;;;;;21.15;12.82;;;5.20;86.90;;;;;;4902371;28;83824;-84
2021/01/01 16:26:53;;;;;;;20.05;11.57;;;5.40;87.40;;;;;;4904275;28;84322;-82
2021/01/01 16:29:19;;;;;;;20.85;13.20;;;5.30;88.90;;;;;;4903899;28;83983;-83
2021/01/01 16:31:46;;;;;;;23.35;13.77;;;5.30;88.50;;;;;;4900674;28;86915;-84
2021/01/01 16:34:17;;;;;;;21.55;13.07;;;5.20;88.90;;;;;;4910855;28;83966;-84
2021/01/01 16:36:44;;;;;;;23.30;12.00;;;5.30;88.60;;;;;;4907209;28;84326;-84
2021/01/01 16:39:12;;;;;;;27.20;16.23;;;5.30;88.30;;;;;;4909268;28;85210;-81
2021/01/01 16:41:43;;;;;;;24.15;15.23;;;5.40;88.80;;;;;;4902985;28;84003;-85
2021/01/01 16:44:11;;;;;;;28.92;16.17;;;5.30;89.50;;;;;;4907537;28;83775;-84
2021/01/01 16:46:38;;;;;;;28.13;16.55;;;5.40;88.50;;;;;;4915569;28;83890;-83
2021/01/01 16:49:05;;;;;;;23.60;14.10;;;5.30;88.10;;;;;;4907656;28;85640;-84
2021/01/01 16:51:36;;;;;;;27.40;15.90;;;5.40;88.10;;;;;;4906567;28;83600;-84
2021/01/01 16:54:03;;;;;;;25.83;15.02;;;5.50;88.50;;;;;;4910897;28;83939;-84
2021/01/01 16:56:29;;;;;;;20.92;12.77;;;;;;;;;;4904511;28;83959;-84
2021/01/01 16:58:55;;;;;;;23.73;15.48;;;5.30;89.10;;;;;;4909074;28;84227;-84
2021/01/01 17:01:21;;;;;;;24.88;13.52;;;;;;;;;;4909653;28;84962;-84
2021/01/01 17:03:47;;;;;;;23.60;13.48;;;5.50;88.80;;;;;;4913044;28;84566;-83
2021/01/01 17:06:17;;;;;;;23.85;14.90;;;5.40;88.60;;;;;;4912306;28;85041;-86
2021/01/01 17:08:45;;;;;;;23.95;13.23;;;5.40;89.00;;;;;;4917603;28;83482;-87
2021/01/01 17:11:10;;;;;;;24.42;13.38;;;5.40;89.00;;;;;;4916184;28;83741;-83
2021/01/01 17:13:36;;;;;;;23.65;12.10;;;5.40;89.50;;;;;;4922349;28;83784;-81
2021/01/01 17:16:02;;;;;;;23.83;12.85;;;5.40;89.60;;;;;;4917883;28;83795;-81
2021/01/01 17:18:27;;;;;;;20.98;12.80;;;5.40;89.80;;;;;;4927976;28;84206;-80
2021/01/01 17:20:53;;;;;;;24.60;14.18;;;5.40;89.60;;;;;;4924126;28;83711;-82
2021/01/01 17:23:19;;;;;;;21.35;13.25;;;5.60;89.90;;;;;;4927567;28;83173;-81
2021/01/01 17:25:45;;;;;;;19.95;13.57;;;;;;;;;;4925095;28;83619;-83
2021/01/01 17:28:11;;;;;;;20.90;13.55;;;;;;;;;;4914709;28;84078;-85
2021/01/01 17:30:38;;;;;;;21.83;12.85;;;5.40;89.80;;;;;;4905511;28;83662;-84
2021/01/01 17:33:04;;;;;;;25.70;13.68;;;5.50;90.00;;;;;;4915535;28;85605;-83
2021/01/01 17:35:32;;;;;;;24.40;13.88;;;5.40;90.00;;;;;;4914706;28;84155;-84
2021/01/01 17:37:58;;;;;;;26.23;14.93;;;;;;;;;;4910378;28;84497;-84
2021/01/01 17:40:24;;;;;;;25.13;14.18;;;;;;;;;;4916824;28;85967;-85
2021/01/01 17:42:50;;;;;;;25.35;14.05;;;;;;;;;;4911156;28;84219;-83
2021/01/01 17:45:16;;;;;;;23.83;14.55;;;5.30;89.50;;;;;;4912751;28;83860;-83
2021/01/01 17:47:42;;;;;;;21.42;12.57;;;5.20;89.90;;;;;;4912489;28;83340;-84
2021/01/01 17:50:09;;;;;;;22.02;13.60;;;5.20;90.00;;;;;;4911047;28;84290;-84
2021/01/01 17:52:38;;;;;;;21.30;14.52;;;5.10;90.20;;;;;;4915125;28;83471;-82
2021/01/01 17:55:07;;;;;;;23.60;14.05;;;5.20;90.40;;;;;;4903942;28;84903;-82
2021/01/01 17:57:33;;;;;;;22.90;14.20;;;5.20;90.00;;;;;;4912463;28;86429;-85
2021/01/01 17:59:59;;;;;;;24.50;13.73;;;5.10;90.10;;;;;;4911589;28;83751;-84